Time;durP1;ratioP1;P1;durP2;ratioP2;P2;SDS_P1;SDS_P2;PMS_P1;PMS_P2;Temp;Humidity;BMP_temperature;BMP_pressure;BME280_temperature;BME280_humidity;BME280_pressure;Samples;Min_cycle;Max_cycle;Signal;HPM_P1;HPM_P2
2022/10/18 00:04:22;;;;;;;82.97;76.43;;;;;;;;;;10143369;28;20077;-71
2022/10/18 00:09:19;;;;;;;83.30;77.00;;;;;;;;;;10143947;28;20046;-70
2022/10/18 00:14:15;;;;;;;83.38;77.05;;;;;;;;;;10129608;28;20079;-70
2022/10/18 00:19:11;;;;;;;87.75;81.10;;;;;;;;;;10111622;28;20050;-70
2022/10/18 00:24:08;;;;;;;86.93;80.15;;;;;;;;;;10109344;28;20071;-70
2022/10/18 00:29:05;;;;;;;87.32;80.32;;;;;;;;;;10103882;28;20131;-70
2022/10/18 00:34:03;;;;;;;86.55;79.88;;;;;;;;;;10099628;28;20059;-70
2022/10/18 00:39:00;;;;;;;87.10;79.63;;;;;;;;;;10130067;28;20042;-70
2022/10/18 00:44:01;;;;;;;85.93;78.93;;;;;;;;;;10139192;28;20038;-70
2022/10/18 00:48:58;;;;;;;84.35;77.78;;;;;;;;;;10134920;28;20057;-70
2022/10/18 00:53:54;;;;;;;87.03;80.00;;;;;;;;;;10140722;28;20133;-70
2022/10/18 00:58:51;;;;;;;86.35;79.40;;;;;;;;;;10134854;28;20051;-70
2022/10/18 01:03:48;;;;;;;88.07;81.07;;;;;;;;;;10126416;28;20043;-70
2022/10/18 01:09:10;;;;;;;88.72;81.28;;;;;;;;;;10103756;28;20533;-70
2022/10/18 01:14:15;;;;;;;89.20;81.72;;;;;;;;;;10125205;28;20058;-70
2022/10/18 01:19:20;;;;;;;87.82;80.65;;;;;;;;;;10144364;28;20050;-70
2022/10/18 01:24:26;;;;;;;86.57;79.68;;;;;;;;;;10153827;28;20050;-70
2022/10/18 01:29:25;;;;;;;88.97;81.97;;;;;;;;;;10141649;28;20054;-70
2022/10/18 01:34:22;;;;;;;88.10;81.07;;;;;;;;;;10140854;28;20408;-70
2022/10/18 01:39:25;;;;;;;89.70;82.50;;;;;;;;;;10155394;28;20045;-70
2022/10/18 01:44:23;;;;;;;90.72;83.45;;;;;;;;;;10161869;28;20053;-70
2022/10/18 01:49:19;;;;;;;88.38;81.15;;;;;;;;;;10146507;28;20062;-70
2022/10/18 01:54:18;;;;;;;92.03;84.57;;;;;;;;;;10147797;28;20054;-70
2022/10/18 01:59:43;;;;;;;88.78;81.32;;;;;;;;;;10143253;28;20042;-71
2022/10/18 02:04:39;;;;;;;92.10;84.60;;;;;;;;;;10130925;28;20050;-70
2022/10/18 02:09:45;;;;;;;91.32;83.43;;;;;;;;;;10147593;28;20054;-70
2022/10/18 02:14:42;;;;;;;87.28;79.80;;;;;;;;;;10157336;28;20061;-70
2022/10/18 02:19:46;;;;;;;88.95;81.43;;;;;;;;;;10153498;28;20057;-70
2022/10/18 02:24:45;;;;;;;93.95;85.95;;;;;;;;;;10160274;28;20057;-70
2022/10/18 02:29:42;;;;;;;90.68;83.20;;;;;;;;;;10153404;28;20508;-70
2022/10/18 02:34:41;;;;;;;89.10;81.72;;;;;;;;;;10108594;28;20047;-70
2022/10/18 02:39:42;;;;;;;91.07;83.18;;;;;;;;;;10148500;28;20412;-70
2022/10/18 02:44:39;;;;;;;95.90;88.00;;;;;;;;;;10155809;28;20056;-70
2022/10/18 02:49:35;;;;;;;94.20;86.25;;;;;;;;;;10149493;28;20057;-71
2022/10/18 02:54:31;;;;;;;94.15;85.70;;;;;;;;;;10146541;28;20051;-70
2022/10/18 02:59:27;;;;;;;92.65;84.22;;;;;;;;;;10143504;28;20137;-70
2022/10/18 03:04:24;;;;;;;94.65;85.65;;;;;;;;;;10134507;28;20509;-70
2022/10/18 03:09:20;;;;;;;92.30;84.03;;;;;;;;;;10153055;28;20038;-70
2022/10/18 03:14:16;;;;;;;92.07;84.18;;;;;;;;;;10119939;28;21024;-70
2022/10/18 03:19:12;;;;;;;93.88;86.00;;;;;;;;;;10130780;28;20053;-70
2022/10/18 03:24:09;;;;;;;93.00;84.78;;;;;;;;;;10122527;28;20078;-70
2022/10/18 03:29:05;;;;;;;95.32;86.53;;;;;;;;;;10115639;28;20492;-70
2022/10/18 03:34:01;;;;;;;94.43;85.22;;;;;;;;;;10110236;28;20066;-70
2022/10/18 03:38:58;;;;;;;95.55;87.50;;;;;;;;;;10145398;28;20046;-70
2022/10/18 03:43:54;;;;;;;95.97;87.13;;;;;;;;;;10119960;28;20090;-70
2022/10/18 03:48:51;;;;;;;93.80;85.57;;;;;;;;;;10136173;28;20715;-69
2022/10/18 03:53:47;;;;;;;97.60;88.97;;;;;;;;;;10117469;28;20047;-69
2022/10/18 03:58:43;;;;;;;92.82;84.03;;;;;;;;;;10100410;28;20488;-69
2022/10/18 04:03:39;;;;;;;96.85;88.82;;;;;;;;;;10107483;28;20042;-69
2022/10/18 04:08:35;;;;;;;102.13;92.80;;;;;;;;;;10098527;28;20054;-69
2022/10/18 04:13:32;;;;;;;99.15;90.72;;;;;;;;;;10109871;28;20047;-69
2022/10/18 04:18:28;;;;;;;100.35;91.32;;;;;;;;;;10094162;28;20050;-70
2022/10/18 04:23:24;;;;;;;99.22;90.05;;;;;;;;;;10134660;28;20046;-70
2022/10/18 04:28:21;;;;;;;100.57;92.07;;;;;;;;;;10120631;28;20678;-70
2022/10/18 04:33:17;;;;;;;99.90;91.00;;;;;;;;;;10116308;28;20120;-69
2022/10/18 04:38:13;;;;;;;95.13;86.40;;;;;;;;;;10100476;28;20041;-70
2022/10/18 04:43:10;;;;;;;91.50;83.50;;;;;;;;;;10100601;28;20051;-70
2022/10/18 04:48:06;;;;;;;92.93;84.47;;;;;;;;;;10110927;28;20425;-70
2022/10/18 04:53:03;;;;;;;92.43;83.45;;;;;;;;;;10101447;28;20055;-70
2022/10/18 04:57:59;;;;;;;94.50;84.90;;;;;;;;;;10128678;28;20042;-70
2022/10/18 05:02:56;;;;;;;89.70;80.22;;;;;;;;;;10147902;28;20048;-70
2022/10/18 05:07:52;;;;;;;92.75;83.85;;;;;;;;;;10148115;28;20515;-70
2022/10/18 05:12:49;;;;;;;93.25;83.53;;;;;;;;;;10149564;28;20042;-70
2022/10/18 05:17:45;;;;;;;90.80;81.88;;;;;;;;;;10139031;28;20054;-70
2022/10/18 05:22:41;;;;;;;91.43;82.22;;;;;;;;;;10155871;28;20397;-70
2022/10/18 05:27:37;;;;;;;92.35;83.18;;;;;;;;;;10148302;28;20393;-70
2022/10/18 05:32:34;;;;;;;96.53;87.07;;;;;;;;;;10139708;28;20050;-70
2022/10/18 05:37:30;;;;;;;96.57;87.43;;;;;;;;;;10139722;28;20085;-70
2022/10/18 05:42:27;;;;;;;97.93;88.47;;;;;;;;;;10150975;28;20047;-70
2022/10/18 05:47:23;;;;;;;97.88;88.68;;;;;;;;;;10147010;28;20148;-70
2022/10/18 05:52:19;;;;;;;93.72;84.63;;;;;;;;;;10167349;28;20089;-70
2022/10/18 05:57:16;;;;;;;97.72;88.15;;;;;;;;;;10147755;28;20049;-70
2022/10/18 06:02:12;;;;;;;95.03;86.13;;;;;;;;;;10133506;28;20051;-70
2022/10/18 06:07:09;;;;;;;102.47;92.65;;;;;;;;;;10139781;28;20050;-70
2022/10/18 06:12:07;;;;;;;104.97;95.90;;;;;;;;;;10134211;28;20043;-70
2022/10/18 06:17:04;;;;;;;108.00;98.40;;;;;;;;;;10109641;28;20048;-70
2022/10/18 06:22:00;;;;;;;107.93;98.68;;;;;;;;;;10110508;28;20047;-70
2022/10/18 06:26:56;;;;;;;111.70;102.45;;;;;;;;;;10137813;28;20048;-70
2022/10/18 06:31:52;;;;;;;111.03;100.85;;;;;;;;;;10164038;28;20045;-70
2022/10/18 06:36:48;;;;;;;111.38;101.85;;;;;;;;;;10153619;28;20058;-70
2022/10/18 06:41:45;;;;;;;113.18;103.80;;;;;;;;;;10137888;28;20512;-70
2022/10/18 06:46:41;;;;;;;117.43;107.57;;;;;;;;;;10123297;28;20042;-70
2022/10/18 06:51:37;;;;;;;116.68;106.43;;;;;;;;;;10114957;28;20050;-70
2022/10/18 06:56:34;;;;;;;121.15;110.25;;;;;;;;;;10115577;28;20516;-70
2022/10/18 07:01:30;;;;;;;119.72;110.00;;;;;;;;;;10094863;28;20055;-70
2022/10/18 07:06:26;;;;;;;114.97;105.25;;;;;;;;;;10117013;28;20050;-70
2022/10/18 07:11:25;;;;;;;115.82;106.25;;;;;;;;;;10148857;28;20047;-70
2022/10/18 07:16:21;;;;;;;114.47;105.07;;;;;;;;;;10117913;28;20081;-70
2022/10/18 07:21:18;;;;;;;118.85;109.30;;;;;;;;;;10106125;28;20046;-70
2022/10/18 07:26:20;;;;;;;116.47;107.03;;;;;;;;;;10115085;28;20056;-70
2022/10/18 07:31:16;;;;;;;120.65;111.30;;;;;;;;;;10140708;28;20070;-70
2022/10/18 07:36:12;;;;;;;118.40;109.32;;;;;;;;;;10104115;28;20513;-70
2022/10/18 07:41:10;;;;;;;114.55;105.72;;;;;;;;;;10131594;28;20058;-70
2022/10/18 07:46:06;;;;;;;119.50;110.78;;;;;;;;;;10155181;28;20049;-70
2022/10/18 07:51:03;;;;;;;118.80;108.82;;;;;;;;;;10153891;28;20050;-70
2022/10/18 07:56:00;;;;;;;117.53;107.30;;;;;;;;;;10152730;28;20050;-70
2022/10/18 08:01:02;;;;;;;105.80;97.45;;;;;;;;;;10147972;28;20520;-70
2022/10/18 08:05:59;;;;;;;106.90;98.78;;;;;;;;;;10133281;28;20047;-70
2022/10/18 08:11:00;;;;;;;99.93;92.35;;;;;;;;;;10105132;28;20050;-70
2022/10/18 08:16:00;;;;;;;99.60;92.25;;;;;;;;;;10112601;28;20409;-70
2022/10/18 08:20:58;;;;;;;94.65;87.32;;;;;;;;;;10112783;28;20637;-70
2022/10/18 08:25:54;;;;;;;98.53;90.68;;;;;;;;;;10122096;28;20432;-69
2022/10/18 08:30:50;;;;;;;96.15;88.72;;;;;;;;;;10142286;28;20442;-70
2022/10/18 08:35:53;;;;;;;99.85;91.70;;;;;;;;;;10146796;28;20056;-70
2022/10/18 08:40:50;;;;;;;97.55;90.60;;;;;;;;;;10149863;28;20500;-70
2022/10/18 08:45:48;;;;;;;101.00;93.57;;;;;;;;;;10154071;28;20501;-70
2022/10/18 08:50:45;;;;;;;93.55;86.07;;;;;;;;;;10147445;28;20038;-70
2022/10/18 08:55:44;;;;;;;94.72;87.38;;;;;;;;;;10150734;28;20428;-70
2022/10/18 09:00:43;;;;;;;91.57;85.07;;;;;;;;;;10137098;28;20129;-70
2022/10/18 09:06:14;;;;;;;87.80;81.22;;;;;;;;;;10109875;28;20051;-70
2022/10/18 09:11:18;;;;;;;85.88;79.78;;;;;;;;;;10052868;28;20051;-70
2022/10/18 09:16:25;;;;;;;83.68;78.00;;;;;;;;;;10106298;28;20425;-70
2022/10/18 09:21:36;;;;;;;83.07;77.15;;;;;;;;;;10111272;28;20038;-70
2022/10/18 09:26:40;;;;;;;85.05;78.95;;;;;;;;;;10104071;28;20046;-70
2022/10/18 09:31:52;;;;;;;86.88;80.50;;;;;;;;;;10097111;28;20046;-70
2022/10/18 09:36:50;;;;;;;88.93;82.70;;;;;;;;;;10110133;28;20420;-70
2022/10/18 09:41:49;;;;;;;93.57;87.13;;;;;;;;;;10103501;28;20523;-70
2022/10/18 09:46:48;;;;;;;92.18;86.18;;;;;;;;;;10128015;28;20108;-70
2022/10/18 09:51:44;;;;;;;87.18;81.43;;;;;;;;;;10143730;28;20047;-70
2022/10/18 09:56:43;;;;;;;79.38;74.03;;;;;;;;;;10148922;28;20046;-70
2022/10/18 10:01:40;;;;;;;60.70;56.17;;;;;;;;;;10158159;28;20042;-70
2022/10/18 10:06:37;;;;;;;53.78;50.15;;;;;;;;;;10154158;28;20054;-70
2022/10/18 10:11:36;;;;;;;48.63;45.05;;;;;;;;;;10154816;28;20045;-70
2022/10/18 10:16:32;;;;;;;48.33;44.17;;;;;;;;;;10147931;28;20058;-70
2022/10/18 10:21:28;;;;;;;45.75;42.35;;;;;;;;;;10155680;28;20436;-70
2022/10/18 10:26:32;;;;;;;46.08;42.35;;;;;;;;;;10158920;28;20742;-70
2022/10/18 10:31:29;;;;;;;35.33;32.33;;;;;;;;;;10152324;28;20046;-70
2022/10/18 10:36:26;;;;;;;32.50;29.45;;;;;;;;;;10152404;28;20046;-70
2022/10/18 10:41:22;;;;;;;34.03;30.83;;;;;;;;;;10159311;28;20108;-70
2022/10/18 10:46:19;;;;;;;26.88;24.27;;;;;;;;;;10154561;28;20050;-69
2022/10/18 10:51:30;;;;;;;22.85;18.63;;;;;;;;;;10164530;28;20128;-70
2022/10/18 10:56:32;;;;;;;18.75;17.13;;;;;;;;;;10160779;28;20052;-70
2022/10/18 11:01:30;;;;;;;21.05;15.48;;;;;;;;;;10148872;28;20054;-70
2022/10/18 11:06:42;;;;;;;19.27;17.25;;;;;;;;;;10149456;28;20046;-70
2022/10/18 11:11:42;;;;;;;16.63;15.03;;;;;;;;;;10154460;28;20042;-70
2022/10/18 11:16:47;;;;;;;21.45;14.60;;;;;;;;;;10139585;28;20046;-70
2022/10/18 11:21:43;;;;;;;18.80;14.88;;;;;;;;;;10134958;28;20038;-70
2022/10/18 11:26:40;;;;;;;19.02;12.90;;;;;;;;;;10108102;28;20064;-70
2022/10/18 11:31:46;;;;;;;16.67;12.55;;;;;;;;;;10123687;28;20046;-70
2022/10/18 11:36:52;;;;;;;16.50;13.77;;;;;;;;;;10159337;28;20050;-70
2022/10/18 11:42:24;;;;;;;17.65;12.68;;;;;;;;;;10150942;28;20138;-71
2022/10/18 11:47:39;;;;;;;23.13;13.60;;;;;;;;;;10160503;28;20050;-73
2022/10/18 11:52:38;;;;;;;19.30;12.65;;;;;;;;;;10152029;28;20704;-71
2022/10/18 11:57:43;;;;;;;14.70;10.05;;;;;;;;;;10154189;28;20050;-71
2022/10/18 12:02:46;;;;;;;17.38;10.65;;;;;;;;;;10152718;28;20512;-71
2022/10/18 12:07:48;;;;;;;17.92;11.50;;;;;;;;;;10156828;28;20048;-71
2022/10/18 12:12:49;;;;;;;15.13;11.23;;;;;;;;;;10152499;28;20046;-70
2022/10/18 12:17:52;;;;;;;15.27;9.98;;;;;;;;;;10131003;28;20561;-71
2022/10/18 12:22:58;;;;;;;16.42;8.93;;;;;;;;;;10107128;28;20133;-70
2022/10/18 12:27:54;;;;;;;10.88;7.90;;;;;;;;;;10112844;28;20054;-70
2022/10/18 12:32:52;;;;;;;14.50;7.60;;;;;;;;;;10128696;28;20057;-70
2022/10/18 12:37:58;;;;;;;8.80;6.72;;;;;;;;;;10139132;28;20045;-70
2022/10/18 12:42:55;;;;;;;11.05;7.07;;;;;;;;;;10125258;28;20093;-71
2022/10/18 12:47:51;;;;;;;9.65;6.65;;;;;;;;;;10098318;28;20066;-70
2022/10/18 12:53:00;;;;;;;12.90;6.32;;;;;;;;;;10099823;28;20051;-70
2022/10/18 12:57:56;;;;;;;12.32;7.03;;;;;;;;;;10125361;28;20520;-70
2022/10/18 13:03:07;;;;;;;11.40;6.50;;;;;;;;;;10151385;28;20042;-70
2022/10/18 13:08:22;;;;;;;13.60;6.95;;;;;;;;;;10113013;28;20053;-70
2022/10/18 13:13:24;;;;;;;12.88;6.95;;;;;;;;;;10123694;28;20042;-70
2022/10/18 13:18:52;;;;;;;12.05;6.50;;;;;;;;;;10120971;28;20070;-70
2022/10/18 13:24:04;;;;;;;15.10;7.75;;;;;;;;;;10149729;28;20590;-70
2022/10/18 13:29:21;;;;;;;15.63;7.63;;;;;;;;;;10156468;28;20061;-70
2022/10/18 13:34:21;;;;;;;14.18;8.13;;;;;;;;;;10122037;28;20867;-70
2022/10/18 13:39:18;;;;;;;8.50;6.47;;;;;;;;;;10155688;28;20479;-70
2022/10/18 13:44:38;;;;;;;10.05;6.80;;;;;;;;;;10126002;28;20057;-70
2022/10/18 13:49:38;;;;;;;10.68;6.45;;;;;;;;;;10152358;28;20053;-70
2022/10/18 13:54:57;;;;;;;13.38;7.43;;;;;;;;;;10117769;28;20133;-70
2022/10/18 14:00:12;;;;;;;10.35;6.50;;;;;;;;;;10108215;28;20043;-70
2022/10/18 14:05:27;;;;;;;17.58;6.70;;;;;;;;;;10145441;28;20244;-70
2022/10/18 14:10:27;;;;;;;9.80;6.53;;;;;;;;;;10119776;28;20489;-70
2022/10/18 14:15:44;;;;;;;15.13;6.47;;;;;;;;;;10110002;28;20043;-70
2022/10/18 14:20:43;;;;;;;10.80;6.32;;;;;;;;;;10119909;28;20080;-70
2022/10/18 14:26:13;;;;;;;11.40;6.60;;;;;;;;;;10109463;28;20046;-70
2022/10/18 14:31:14;;;;;;;11.68;6.70;;;;;;;;;;10101837;28;20055;-70
2022/10/18 14:36:15;;;;;;;16.17;8.10;;;;;;;;;;10110163;28;20055;-70
2022/10/18 14:41:20;;;;;;;16.38;8.82;;;;;;;;;;10116673;28;20050;-70
2022/10/18 14:46:20;;;;;;;13.93;7.95;;;;;;;;;;10137112;28;20142;-70
2022/10/18 14:51:17;;;;;;;15.32;9.27;;;;;;;;;;10113717;28;20062;-70
2022/10/18 14:56:21;;;;;;;12.93;8.38;;;;;;;;;;10119681;28;20042;-72
2022/10/18 15:01:19;;;;;;;15.68;9.57;;;;;;;;;;10155410;28;20054;-70
2022/10/18 15:06:17;;;;;;;20.70;10.35;;;;;;;;;;10137533;28;20082;-70
2022/10/18 15:11:14;;;;;;;12.82;9.55;;;;;;;;;;10140192;28;20054;-69
2022/10/18 15:16:14;;;;;;;15.55;10.32;;;;;;;;;;10128925;28;20522;-69
2022/10/18 15:21:20;;;;;;;14.57;10.00;;;;;;;;;;10142478;28;20058;-70
2022/10/18 15:26:28;;;;;;;14.18;9.88;;;;;;;;;;10121822;28;20058;-72
2022/10/18 15:31:24;;;;;;;10.68;8.77;;;;;;;;;;10147593;28;20528;-71
2022/10/18 15:36:27;;;;;;;18.65;10.20;;;;;;;;;;10113761;28;20051;-71
2022/10/18 15:41:49;;;;;;;15.77;11.60;;;;;;;;;;10130606;28;20055;-71
2022/10/18 15:46:48;;;;;;;18.52;9.93;;;;;;;;;;10125144;28;20046;-71
2022/10/18 15:51:44;;;;;;;10.93;8.88;;;;;;;;;;10120275;28;20564;-70
2022/10/18 15:56:41;;;;;;;12.60;9.75;;;;;;;;;;10151796;28;20077;-71
2022/10/18 16:01:41;;;;;;;20.67;10.88;;;;;;;;;;10136661;28;20508;-70
2022/10/18 16:06:37;;;;;;;14.40;10.07;;;;;;;;;;10153047;28;20054;-70
2022/10/18 16:11:34;;;;;;;12.82;9.93;;;;;;;;;;10143397;28;20046;-71
2022/10/18 16:16:30;;;;;;;11.35;10.13;;;;;;;;;;10148503;28;20286;-70
2022/10/18 16:21:33;;;;;;;11.70;9.40;;;;;;;;;;10150754;28;20164;-70
2022/10/18 16:26:30;;;;;;;17.02;11.23;;;;;;;;;;10149621;28;20043;-70
2022/10/18 16:31:27;;;;;;;15.23;10.55;;;;;;;;;;10145869;28;20042;-70
2022/10/18 16:36:25;;;;;;;12.13;10.80;;;;;;;;;;10135768;28;20054;-70
2022/10/18 16:41:22;;;;;;;18.45;11.75;;;;;;;;;;10096720;28;20035;-71
2022/10/18 16:46:22;;;;;;;13.95;10.65;;;;;;;;;;10109522;28;20063;-70
2022/10/18 16:51:19;;;;;;;14.30;11.18;;;;;;;;;;10099414;28;20055;-71
2022/10/18 16:56:17;;;;;;;16.80;11.50;;;;;;;;;;10097926;28;20047;-71
2022/10/18 17:01:15;;;;;;;17.13;12.10;;;;;;;;;;10101010;28;20528;-71
2022/10/18 17:06:16;;;;;;;13.63;11.77;;;;;;;;;;10135206;28;21525;-71
2022/10/18 17:11:13;;;;;;;14.90;11.77;;;;;;;;;;10138454;28;20504;-71
2022/10/18 17:16:37;;;;;;;18.85;11.90;;;;;;;;;;10145449;28;20055;-71
2022/10/18 17:21:33;;;;;;;14.38;11.23;;;;;;;;;;10134615;28;20139;-71
2022/10/18 17:26:30;;;;;;;16.70;11.55;;;;;;;;;;10149836;28;20046;-71
2022/10/18 17:31:27;;;;;;;11.68;10.57;;;;;;;;;;10150804;28;20057;-71
2022/10/18 17:36:24;;;;;;;17.30;11.43;;;;;;;;;;10142317;28;20047;-71
2022/10/18 17:41:20;;;;;;;16.33;11.07;;;;;;;;;;10148277;28;20043;-71
2022/10/18 17:46:18;;;;;;;15.32;10.88;;;;;;;;;;10149917;28;20042;-72
2022/10/18 17:51:15;;;;;;;12.63;10.05;;;;;;;;;;10149628;28;20042;-71
2022/10/18 17:56:11;;;;;;;11.60;10.32;;;;;;;;;;10147830;28;20096;-71
2022/10/18 18:01:12;;;;;;;12.45;9.60;;;;;;;;;;10156329;28;20052;-71
2022/10/18 18:06:13;;;;;;;14.80;11.38;;;;;;;;;;10147885;28;20633;-71
2022/10/18 18:11:09;;;;;;;11.85;10.13;;;;;;;;;;10148158;28;20055;-71
2022/10/18 18:16:12;;;;;;;20.52;12.57;;;;;;;;;;10143130;28;20459;-72
2022/10/18 18:21:09;;;;;;;15.90;10.57;;;;;;;;;;10143165;28;20046;-71
2022/10/18 18:26:05;;;;;;;20.30;12.02;;;;;;;;;;10112340;28;20245;-71
2022/10/18 18:31:09;;;;;;;14.93;13.40;;;;;;;;;;10124054;28;20134;-71
2022/10/18 18:36:06;;;;;;;13.82;11.60;;;;;;;;;;10153498;28;20054;-72
2022/10/18 18:41:03;;;;;;;11.07;9.98;;;;;;;;;;10131045;28;20046;-71
2022/10/18 18:45:59;;;;;;;12.48;10.93;;;;;;;;;;10160899;28;20038;-72
2022/10/18 18:50:56;;;;;;;17.60;11.85;;;;;;;;;;10151058;28;20142;-70
2022/10/18 18:55:52;;;;;;;14.77;12.02;;;;;;;;;;10152462;28;20424;-71
2022/10/18 19:00:48;;;;;;;17.08;12.20;;;;;;;;;;10149350;28;20049;-71
2022/10/18 19:05:44;;;;;;;13.50;10.95;;;;;;;;;;10121883;28;20042;-71
2022/10/18 19:10:41;;;;;;;16.75;12.05;;;;;;;;;;10144916;28;20450;-71
2022/10/18 19:15:37;;;;;;;11.82;10.52;;;;;;;;;;10113346;28;20046;-72
2022/10/18 19:20:33;;;;;;;17.73;10.55;;;;;;;;;;10098229;28;20130;-71
2022/10/18 19:25:30;;;;;;;10.55;9.52;;;;;;;;;;10119063;28;20523;-71
2022/10/18 19:30:26;;;;;;;12.57;10.48;;;;;;;;;;10156158;28;20775;-72
2022/10/18 19:35:22;;;;;;;14.07;10.55;;;;;;;;;;10158656;28;20056;-72
2022/10/18 19:40:18;;;;;;;11.02;9.88;;;;;;;;;;10143870;28;20059;-71
2022/10/18 19:45:15;;;;;;;13.40;10.25;;;;;;;;;;10134630;28;20156;-69
2022/10/18 19:50:11;;;;;;;11.30;9.10;;;;;;;;;;10143547;28;20055;-69
2022/10/18 19:55:07;;;;;;;9.38;8.38;;;;;;;;;;10136793;28;20061;-71
2022/10/18 20:00:04;;;;;;;11.80;8.98;;;;;;;;;;10149864;28;20057;-72
2022/10/18 20:05:06;;;;;;;12.20;8.88;;;;;;;;;;10151409;28;20038;-72
2022/10/18 20:10:03;;;;;;;9.52;8.63;;;;;;;;;;10150471;28;20057;-71
2022/10/18 20:14:59;;;;;;;10.70;9.60;;;;;;;;;;10125007;28;20485;-71
2022/10/18 20:19:55;;;;;;;10.55;9.65;;;;;;;;;;10144231;28;20042;-71
2022/10/18 20:24:54;;;;;;;11.77;10.20;;;;;;;;;;10155281;28;20034;-71
2022/10/18 20:29:50;;;;;;;13.43;11.05;;;;;;;;;;10151614;28;20072;-71
2022/10/18 20:34:47;;;;;;;11.52;10.43;;;;;;;;;;10148160;28;20061;-72
2022/10/18 20:39:43;;;;;;;12.20;10.43;;;;;;;;;;10150311;28;20053;-72
2022/10/18 20:44:42;;;;;;;13.02;11.88;;;;;;;;;;10142010;28;20038;-71
2022/10/18 20:49:38;;;;;;;17.48;13.25;;;;;;;;;;10118080;28;20524;-72
2022/10/18 20:54:34;;;;;;;13.60;12.25;;;;;;;;;;10116519;28;20043;-72
2022/10/18 20:59:30;;;;;;;17.70;13.93;;;;;;;;;;10142729;28;20073;-71
2022/10/18 21:04:27;;;;;;;17.58;16.27;;;;;;;;;;10113833;28;22025;-71
2022/10/18 21:09:23;;;;;;;16.38;15.00;;;;;;;;;;10146618;28;20058;-71
2022/10/18 21:14:20;;;;;;;18.38;16.45;;;;;;;;;;10141120;28;20072;-71
2022/10/18 21:19:16;;;;;;;16.80;15.43;;;;;;;;;;10125286;28;20057;-72
2022/10/18 21:24:12;;;;;;;17.48;15.65;;;;;;;;;;10093923;28;20513;-71
2022/10/18 21:29:09;;;;;;;18.45;16.60;;;;;;;;;;10105006;28;20050;-71
2022/10/18 21:34:11;;;;;;;17.67;15.80;;;;;;;;;;10110466;28;20047;-71
2022/10/18 21:39:10;;;;;;;17.37;15.87;;;;;;;;;;10100771;28;20055;-72
2022/10/18 21:44:07;;;;;;;16.30;14.68;;;;;;;;;;10120247;28;20043;-71
2022/10/18 21:49:06;;;;;;;16.73;14.35;;;;;;;;;;10145570;28;20096;-71
2022/10/18 21:54:02;;;;;;;15.35;13.88;;;;;;;;;;10154712;28;20058;-71
2022/10/18 21:58:59;;;;;;;15.88;14.30;;;;;;;;;;10148612;28;20046;-71
2022/10/18 22:03:55;;;;;;;15.55;14.15;;;;;;;;;;10155858;28;20045;-71
2022/10/18 22:08:53;;;;;;;16.65;15.07;;;;;;;;;;10157317;28;20044;-72
2022/10/18 22:13:50;;;;;;;15.55;14.32;;;;;;;;;;10159869;28;20042;-71
2022/10/18 22:18:47;;;;;;;16.65;14.73;;;;;;;;;;10160245;28;20100;-71
2022/10/18 22:23:44;;;;;;;25.10;23.17;;;;;;;;;;10154935;28;20039;-71
2022/10/18 22:28:41;;;;;;;36.15;33.70;;;;;;;;;;10174683;28;20040;-71
2022/10/18 22:33:37;;;;;;;54.20;51.00;;;;;;;;;;10155536;28;20046;-72
2022/10/18 22:38:34;;;;;;;56.60;53.35;;;;;;;;;;10165035;28;20732;-72
2022/10/18 22:43:31;;;;;;;70.43;66.32;;;;;;;;;;10155831;28;20045;-72
2022/10/18 22:48:27;;;;;;;77.38;73.32;;;;;;;;;;10151720;28;20056;-72
2022/10/18 22:53:23;;;;;;;82.65;77.95;;;;;;;;;;10149039;28;20046;-72
2022/10/18 22:58:20;;;;;;;73.75;69.55;;;;;;;;;;10154803;28;20046;-72
2022/10/18 23:03:17;;;;;;;78.93;74.40;;;;;;;;;;10128649;28;20452;-72
2022/10/18 23:08:13;;;;;;;76.22;71.63;;;;;;;;;;10142204;28;20042;-72
2022/10/18 23:13:10;;;;;;;75.65;71.38;;;;;;;;;;10155510;28;20072;-72
2022/10/18 23:18:07;;;;;;;80.40;75.85;;;;;;;;;;10116916;28;20055;-72
2022/10/18 23:23:03;;;;;;;76.63;71.95;;;;;;;;;;10111406;28;21245;-72
2022/10/18 23:27:59;;;;;;;80.30;75.85;;;;;;;;;;10093964;28;20035;-72
2022/10/18 23:32:56;;;;;;;85.15;80.53;;;;;;;;;;10109672;28;20050;-71
2022/10/18 23:37:52;;;;;;;89.90;85.25;;;;;;;;;;10106947;28;20042;-72
2022/10/18 23:42:48;;;;;;;83.90;79.43;;;;;;;;;;10113568;28;20062;-71
2022/10/18 23:47:44;;;;;;;90.32;85.47;;;;;;;;;;10107314;28;20050;-72
2022/10/18 23:52:41;;;;;;;94.97;89.80;;;;;;;;;;10125198;28;20054;-72
2022/10/18 23:57:37;;;;;;;86.40;81.57;;;;;;;;;;10136528;28;20423;-72
